sensor_id;sensor_type;location;lat;lon;timestamp;P1;durP1;ratioP1;P2;durP2;ratioP2
76714;SDS011;65644;44.990;20.288;2024-02-21T00:02:20;23.73;;;16.70;;
76714;SDS011;65644;44.990;20.288;2024-02-21T00:04:46;19.23;;;15.43;;
76714;SDS011;65644;44.990;20.288;2024-02-21T00:07:12;19.20;;;14.35;;
76714;SDS011;65644;44.990;20.288;2024-02-21T00:09:38;18.05;;;12.48;;
76714;SDS011;65644;44.990;20.288;2024-02-21T00:12:05;19.67;;;13.55;;
76714;SDS011;65644;44.990;20.288;2024-02-21T00:14:31;20.13;;;15.00;;
76714;SDS011;65644;44.990;20.288;2024-02-21T00:16:57;24.23;;;15.93;;
76714;SDS011;65644;44.990;20.288;2024-02-21T00:19:23;20.73;;;14.57;;
76714;SDS011;65644;44.990;20.288;2024-02-21T00:21:49;21.05;;;13.68;;
76714;SDS011;65644;44.990;20.288;2024-02-21T00:24:15;18.80;;;12.85;;
76714;SDS011;65644;44.990;20.288;2024-02-21T00:26:41;17.05;;;12.23;;
76714;SDS011;65644;44.990;20.288;2024-02-21T00:29:08;14.10;;;10.77;;
76714;SDS011;65644;44.990;20.288;2024-02-21T00:31:34;13.57;;;10.40;;
76714;SDS011;65644;44.990;20.288;2024-02-21T00:34:00;12.38;;;9.35;;
76714;SDS011;65644;44.990;20.288;2024-02-21T00:36:26;11.32;;;9.07;;
76714;SDS011;65644;44.990;20.288;2024-02-21T00:38:52;13.00;;;9.30;;
76714;SDS011;65644;44.990;20.288;2024-02-21T00:41:18;15.63;;;10.80;;
76714;SDS011;65644;44.990;20.288;2024-02-21T00:43:44;19.90;;;10.93;;
76714;SDS011;65644;44.990;20.288;2024-02-21T00:46:10;17.67;;;11.15;;
76714;SDS011;65644;44.990;20.288;2024-02-21T00:48:36;19.77;;;11.63;;
76714;SDS011;65644;44.990;20.288;2024-02-21T00:51:02;23.27;;;12.90;;
76714;SDS011;65644;44.990;20.288;2024-02-21T00:53:28;20.00;;;11.32;;
76714;SDS011;65644;44.990;20.288;2024-02-21T00:55:55;18.90;;;11.57;;
76714;SDS011;65644;44.990;20.288;2024-02-21T00:58:22;22.70;;;12.13;;
76714;SDS011;65644;44.990;20.288;2024-02-21T01:00:48;23.35;;;11.48;;
76714;SDS011;65644;44.990;20.288;2024-02-21T01:03:14;25.70;;;12.77;;
76714;SDS011;65644;44.990;20.288;2024-02-21T01:05:40;24.80;;;13.23;;
76714;SDS011;65644;44.990;20.288;2024-02-21T01:08:07;28.98;;;13.32;;
76714;SDS011;65644;44.990;20.288;2024-02-21T01:10:33;19.83;;;12.88;;
76714;SDS011;65644;44.990;20.288;2024-02-21T01:12:59;22.77;;;13.20;;
76714;SDS011;65644;44.990;20.288;2024-02-21T01:15:25;22.02;;;12.35;;
76714;SDS011;65644;44.990;20.288;2024-02-21T01:17:52;19.35;;;11.73;;
76714;SDS011;65644;44.990;20.288;2024-02-21T01:20:20;19.95;;;11.15;;
76714;SDS011;65644;44.990;20.288;2024-02-21T01:22:46;18.33;;;11.18;;
76714;SDS011;65644;44.990;20.288;2024-02-21T01:25:12;22.60;;;11.45;;
76714;SDS011;65644;44.990;20.288;2024-02-21T01:27:38;19.02;;;11.55;;
76714;SDS011;65644;44.990;20.288;2024-02-21T01:30:05;17.88;;;12.02;;
76714;SDS011;65644;44.990;20.288;2024-02-21T01:32:31;18.67;;;11.90;;
76714;SDS011;65644;44.990;20.288;2024-02-21T01:34:57;17.88;;;11.50;;
76714;SDS011;65644;44.990;20.288;2024-02-21T01:37:23;17.65;;;11.52;;
76714;SDS011;65644;44.990;20.288;2024-02-21T01:39:51;16.55;;;11.23;;
76714;SDS011;65644;44.990;20.288;2024-02-21T01:42:17;19.00;;;11.40;;
76714;SDS011;65644;44.990;20.288;2024-02-21T01:44:43;15.00;;;10.82;;
76714;SDS011;65644;44.990;20.288;2024-02-21T01:47:10;17.70;;;10.90;;
76714;SDS011;65644;44.990;20.288;2024-02-21T01:49:36;15.07;;;10.23;;
76714;SDS011;65644;44.990;20.288;2024-02-21T01:52:02;15.43;;;10.75;;
76714;SDS011;65644;44.990;20.288;2024-02-21T01:54:29;15.60;;;10.27;;
76714;SDS011;65644;44.990;20.288;2024-02-21T01:56:55;15.10;;;10.38;;
76714;SDS011;65644;44.990;20.288;2024-02-21T01:59:21;13.23;;;10.05;;
76714;SDS011;65644;44.990;20.288;2024-02-21T02:01:47;12.50;;;10.02;;
76714;SDS011;65644;44.990;20.288;2024-02-21T02:04:13;12.80;;;10.00;;
76714;SDS011;65644;44.990;20.288;2024-02-21T02:06:40;15.05;;;10.90;;
76714;SDS011;65644;44.990;20.288;2024-02-21T02:09:06;13.65;;;10.20;;
76714;SDS011;65644;44.990;20.288;2024-02-21T02:11:32;15.40;;;10.63;;
76714;SDS011;65644;44.990;20.288;2024-02-21T02:13:59;12.82;;;10.40;;
76714;SDS011;65644;44.990;20.288;2024-02-21T02:16:25;13.50;;;9.95;;
76714;SDS011;65644;44.990;20.288;2024-02-21T02:18:51;13.93;;;10.43;;
76714;SDS011;65644;44.990;20.288;2024-02-21T02:21:27;16.48;;;10.10;;
76714;SDS011;65644;44.990;20.288;2024-02-21T02:23:55;12.50;;;9.25;;
76714;SDS011;65644;44.990;20.288;2024-02-21T02:26:22;13.23;;;9.80;;
76714;SDS011;65644;44.990;20.288;2024-02-21T02:28:48;11.68;;;9.05;;
76714;SDS011;65644;44.990;20.288;2024-02-21T02:31:14;11.15;;;8.80;;
76714;SDS011;65644;44.990;20.288;2024-02-21T02:33:42;11.75;;;9.30;;
76714;SDS011;65644;44.990;20.288;2024-02-21T02:36:09;13.90;;;9.40;;
76714;SDS011;65644;44.990;20.288;2024-02-21T02:38:35;13.23;;;9.57;;
76714;SDS011;65644;44.990;20.288;2024-02-21T02:41:02;13.05;;;9.13;;
76714;SDS011;65644;44.990;20.288;2024-02-21T02:43:28;11.30;;;8.32;;
76714;SDS011;65644;44.990;20.288;2024-02-21T02:45:54;12.68;;;9.30;;
76714;SDS011;65644;44.990;20.288;2024-02-21T02:48:20;12.05;;;8.95;;
76714;SDS011;65644;44.990;20.288;2024-02-21T02:50:47;10.60;;;9.02;;
76714;SDS011;65644;44.990;20.288;2024-02-21T02:53:14;12.25;;;9.00;;
76714;SDS011;65644;44.990;20.288;2024-02-21T02:55:40;11.43;;;9.05;;
76714;SDS011;65644;44.990;20.288;2024-02-21T02:58:06;12.45;;;9.35;;
76714;SDS011;65644;44.990;20.288;2024-02-21T03:00:33;14.63;;;10.18;;
76714;SDS011;65644;44.990;20.288;2024-02-21T03:03:01;12.90;;;9.35;;
76714;SDS011;65644;44.990;20.288;2024-02-21T03:05:30;11.57;;;9.30;;
76714;SDS011;65644;44.990;20.288;2024-02-21T03:07:56;11.23;;;9.23;;
76714;SDS011;65644;44.990;20.288;2024-02-21T03:10:23;11.32;;;9.60;;
76714;SDS011;65644;44.990;20.288;2024-02-21T03:12:49;10.80;;;9.15;;
76714;SDS011;65644;44.990;20.288;2024-02-21T03:15:18;14.00;;;9.75;;
76714;SDS011;65644;44.990;20.288;2024-02-21T03:17:44;12.98;;;9.10;;
76714;SDS011;65644;44.990;20.288;2024-02-21T03:20:10;11.40;;;9.75;;
76714;SDS011;65644;44.990;20.288;2024-02-21T03:22:37;10.48;;;8.43;;
76714;SDS011;65644;44.990;20.288;2024-02-21T03:25:03;9.85;;;8.18;;
76714;SDS011;65644;44.990;20.288;2024-02-21T03:27:29;10.75;;;8.00;;
76714;SDS011;65644;44.990;20.288;2024-02-21T03:29:55;10.20;;;7.80;;
76714;SDS011;65644;44.990;20.288;2024-02-21T03:32:21;8.27;;;7.35;;
76714;SDS011;65644;44.990;20.288;2024-02-21T03:34:47;8.73;;;7.55;;
76714;SDS011;65644;44.990;20.288;2024-02-21T03:37:14;9.05;;;8.00;;
76714;SDS011;65644;44.990;20.288;2024-02-21T03:39:40;9.65;;;7.40;;
76714;SDS011;65644;44.990;20.288;2024-02-21T03:42:06;9.38;;;6.97;;
76714;SDS011;65644;44.990;20.288;2024-02-21T03:44:32;8.55;;;7.15;;
76714;SDS011;65644;44.990;20.288;2024-02-21T03:46:58;7.68;;;6.63;;
76714;SDS011;65644;44.990;20.288;2024-02-21T03:49:25;7.97;;;7.13;;
76714;SDS011;65644;44.990;20.288;2024-02-21T03:51:51;8.32;;;6.53;;
76714;SDS011;65644;44.990;20.288;2024-02-21T03:54:17;7.47;;;6.55;;
76714;SDS011;65644;44.990;20.288;2024-02-21T03:56:43;7.88;;;6.45;;
76714;SDS011;65644;44.990;20.288;2024-02-21T03:59:09;9.25;;;6.28;;
76714;SDS011;65644;44.990;20.288;2024-02-21T04:01:36;9.77;;;7.28;;
76714;SDS011;65644;44.990;20.288;2024-02-21T04:04:02;8.13;;;6.35;;
76714;SDS011;65644;44.990;20.288;2024-02-21T04:06:28;7.63;;;6.93;;
76714;SDS011;65644;44.990;20.288;2024-02-21T04:08:54;7.90;;;6.68;;
76714;SDS011;65644;44.990;20.288;2024-02-21T04:11:20;9.75;;;7.13;;
76714;SDS011;65644;44.990;20.288;2024-02-21T04:13:46;7.68;;;6.25;;
76714;SDS011;65644;44.990;20.288;2024-02-21T04:16:15;7.03;;;6.30;;
76714;SDS011;65644;44.990;20.288;2024-02-21T04:18:41;6.97;;;6.10;;
76714;SDS011;65644;44.990;20.288;2024-02-21T04:21:08;7.85;;;6.45;;
76714;SDS011;65644;44.990;20.288;2024-02-21T04:23:34;6.93;;;6.15;;
76714;SDS011;65644;44.990;20.288;2024-02-21T04:26:00;8.35;;;6.80;;
76714;SDS011;65644;44.990;20.288;2024-02-21T04:28:27;7.47;;;6.18;;
76714;SDS011;65644;44.990;20.288;2024-02-21T04:30:53;7.57;;;6.28;;
76714;SDS011;65644;44.990;20.288;2024-02-21T04:33:19;7.03;;;6.20;;
76714;SDS011;65644;44.990;20.288;2024-02-21T04:35:45;6.72;;;5.93;;
76714;SDS011;65644;44.990;20.288;2024-02-21T04:38:11;8.20;;;6.43;;
76714;SDS011;65644;44.990;20.288;2024-02-21T04:40:37;7.43;;;6.13;;
76714;SDS011;65644;44.990;20.288;2024-02-21T04:43:04;7.10;;;5.75;;
76714;SDS011;65644;44.990;20.288;2024-02-21T04:45:30;8.32;;;5.85;;
76714;SDS011;65644;44.990;20.288;2024-02-21T04:47:56;6.53;;;5.78;;
76714;SDS011;65644;44.990;20.288;2024-02-21T04:50:22;9.88;;;6.45;;
76714;SDS011;65644;44.990;20.288;2024-02-21T04:52:48;6.72;;;5.53;;
76714;SDS011;65644;44.990;20.288;2024-02-21T04:55:14;7.22;;;6.25;;
76714;SDS011;65644;44.990;20.288;2024-02-21T04:57:40;6.47;;;5.88;;
76714;SDS011;65644;44.990;20.288;2024-02-21T05:00:06;5.80;;;5.20;;
76714;SDS011;65644;44.990;20.288;2024-02-21T05:02:33;7.57;;;5.85;;
76714;SDS011;65644;44.990;20.288;2024-02-21T05:04:59;6.47;;;5.53;;
76714;SDS011;65644;44.990;20.288;2024-02-21T05:07:25;8.48;;;6.93;;
76714;SDS011;65644;44.990;20.288;2024-02-21T05:09:51;7.93;;;7.20;;
76714;SDS011;65644;44.990;20.288;2024-02-21T05:12:18;8.65;;;6.90;;
76714;SDS011;65644;44.990;20.288;2024-02-21T05:14:44;8.13;;;6.85;;
76714;SDS011;65644;44.990;20.288;2024-02-21T05:17:10;7.07;;;5.63;;
76714;SDS011;65644;44.990;20.288;2024-02-21T05:19:36;8.07;;;5.32;;
76714;SDS011;65644;44.990;20.288;2024-02-21T05:22:02;6.40;;;5.40;;
76714;SDS011;65644;44.990;20.288;2024-02-21T05:24:28;6.82;;;6.13;;
76714;SDS011;65644;44.990;20.288;2024-02-21T05:26:54;6.78;;;5.93;;
76714;SDS011;65644;44.990;20.288;2024-02-21T05:29:21;9.50;;;5.70;;
76714;SDS011;65644;44.990;20.288;2024-02-21T05:34:19;5.95;;;5.35;;
76714;SDS011;65644;44.990;20.288;2024-02-21T05:36:46;5.10;;;4.65;;
76714;SDS011;65644;44.990;20.288;2024-02-21T05:39:13;5.78;;;5.10;;
76714;SDS011;65644;44.990;20.288;2024-02-21T05:41:39;5.95;;;5.28;;
76714;SDS011;65644;44.990;20.288;2024-02-21T05:44:05;7.50;;;5.95;;
76714;SDS011;65644;44.990;20.288;2024-02-21T05:46:31;11.90;;;6.43;;
76714;SDS011;65644;44.990;20.288;2024-02-21T05:48:57;7.80;;;6.25;;
76714;SDS011;65644;44.990;20.288;2024-02-21T05:51:23;7.95;;;5.80;;
76714;SDS011;65644;44.990;20.288;2024-02-21T05:53:50;6.85;;;5.88;;
76714;SDS011;65644;44.990;20.288;2024-02-21T05:56:16;6.93;;;5.68;;
76714;SDS011;65644;44.990;20.288;2024-02-21T05:58:43;8.93;;;5.85;;
76714;SDS011;65644;44.990;20.288;2024-02-21T06:01:09;7.38;;;6.20;;
76714;SDS011;65644;44.990;20.288;2024-02-21T06:03:35;9.05;;;6.10;;
76714;SDS011;65644;44.990;20.288;2024-02-21T06:06:01;7.57;;;5.95;;
76714;SDS011;65644;44.990;20.288;2024-02-21T06:08:28;8.15;;;5.07;;
76714;SDS011;65644;44.990;20.288;2024-02-21T06:10:54;8.38;;;4.75;;
76714;SDS011;65644;44.990;20.288;2024-02-21T06:13:20;7.20;;;4.65;;
76714;SDS011;65644;44.990;20.288;2024-02-21T06:15:47;4.97;;;4.50;;
76714;SDS011;65644;44.990;20.288;2024-02-21T06:18:13;8.00;;;5.18;;
76714;SDS011;65644;44.990;20.288;2024-02-21T06:20:39;7.55;;;4.63;;
76714;SDS011;65644;44.990;20.288;2024-02-21T06:23:06;6.30;;;4.85;;
76714;SDS011;65644;44.990;20.288;2024-02-21T06:25:32;7.90;;;4.90;;
76714;SDS011;65644;44.990;20.288;2024-02-21T06:27:58;6.55;;;4.30;;
76714;SDS011;65644;44.990;20.288;2024-02-21T06:30:24;5.30;;;4.32;;
76714;SDS011;65644;44.990;20.288;2024-02-21T06:32:50;7.13;;;4.22;;
76714;SDS011;65644;44.990;20.288;2024-02-21T06:35:16;5.47;;;4.45;;
76714;SDS011;65644;44.990;20.288;2024-02-21T06:37:43;5.82;;;3.95;;
76714;SDS011;65644;44.990;20.288;2024-02-21T06:40:11;5.20;;;4.13;;
76714;SDS011;65644;44.990;20.288;2024-02-21T06:42:38;6.57;;;4.00;;
76714;SDS011;65644;44.990;20.288;2024-02-21T06:45:04;4.43;;;3.67;;
76714;SDS011;65644;44.990;20.288;2024-02-21T06:47:30;6.30;;;4.43;;
76714;SDS011;65644;44.990;20.288;2024-02-21T06:49:56;5.20;;;3.75;;
76714;SDS011;65644;44.990;20.288;2024-02-21T06:52:22;6.53;;;4.10;;
76714;SDS011;65644;44.990;20.288;2024-02-21T06:54:48;5.43;;;4.05;;
76714;SDS011;65644;44.990;20.288;2024-02-21T06:57:15;4.88;;;3.33;;
76714;SDS011;65644;44.990;20.288;2024-02-21T06:59:41;4.05;;;3.47;;
76714;SDS011;65644;44.990;20.288;2024-02-21T07:02:07;5.30;;;4.15;;
76714;SDS011;65644;44.990;20.288;2024-02-21T07:04:33;6.85;;;4.10;;
76714;SDS011;65644;44.990;20.288;2024-02-21T07:06:59;5.65;;;4.57;;
76714;SDS011;65644;44.990;20.288;2024-02-21T07:09:26;6.97;;;4.15;;
76714;SDS011;65644;44.990;20.288;2024-02-21T07:11:53;7.90;;;4.05;;
76714;SDS011;65644;44.990;20.288;2024-02-21T07:14:19;7.80;;;3.85;;
76714;SDS011;65644;44.990;20.288;2024-02-21T07:16:45;7.28;;;3.75;;
76714;SDS011;65644;44.990;20.288;2024-02-21T07:19:12;5.95;;;4.13;;
76714;SDS011;65644;44.990;20.288;2024-02-21T07:21:38;6.60;;;4.07;;
76714;SDS011;65644;44.990;20.288;2024-02-21T07:24:07;6.80;;;3.47;;
76714;SDS011;65644;44.990;20.288;2024-02-21T07:26:33;8.35;;;4.00;;
76714;SDS011;65644;44.990;20.288;2024-02-21T07:28:59;6.13;;;4.28;;
76714;SDS011;65644;44.990;20.288;2024-02-21T07:31:25;8.93;;;5.55;;
76714;SDS011;65644;44.990;20.288;2024-02-21T07:33:51;8.90;;;5.25;;
76714;SDS011;65644;44.990;20.288;2024-02-21T07:36:27;7.95;;;5.18;;
76714;SDS011;65644;44.990;20.288;2024-02-21T07:38:54;11.25;;;6.13;;
76714;SDS011;65644;44.990;20.288;2024-02-21T07:41:20;6.68;;;5.25;;
76714;SDS011;65644;44.990;20.288;2024-02-21T07:43:46;8.45;;;5.00;;
76714;SDS011;65644;44.990;20.288;2024-02-21T07:46:13;8.43;;;4.88;;
76714;SDS011;65644;44.990;20.288;2024-02-21T07:48:40;8.88;;;4.30;;
76714;SDS011;65644;44.990;20.288;2024-02-21T07:51:06;7.38;;;4.32;;
76714;SDS011;65644;44.990;20.288;2024-02-21T07:53:32;5.38;;;3.83;;
76714;SDS011;65644;44.990;20.288;2024-02-21T07:55:58;6.47;;;4.05;;
76714;SDS011;65644;44.990;20.288;2024-02-21T07:58:24;6.35;;;4.72;;
76714;SDS011;65644;44.990;20.288;2024-02-21T08:00:50;9.48;;;4.65;;
76714;SDS011;65644;44.990;20.288;2024-02-21T08:03:16;12.60;;;5.20;;
76714;SDS011;65644;44.990;20.288;2024-02-21T08:05:43;9.60;;;5.03;;
76714;SDS011;65644;44.990;20.288;2024-02-21T08:08:09;7.95;;;6.07;;
76714;SDS011;65644;44.990;20.288;2024-02-21T08:10:35;12.48;;;7.75;;
76714;SDS011;65644;44.990;20.288;2024-02-21T08:13:01;9.85;;;6.45;;
76714;SDS011;65644;44.990;20.288;2024-02-21T08:15:27;11.07;;;6.00;;
76714;SDS011;65644;44.990;20.288;2024-02-21T08:17:55;8.43;;;5.90;;
76714;SDS011;65644;44.990;20.288;2024-02-21T08:20:24;11.45;;;6.72;;
76714;SDS011;65644;44.990;20.288;2024-02-21T08:22:51;7.82;;;5.40;;
76714;SDS011;65644;44.990;20.288;2024-02-21T08:25:17;9.30;;;5.72;;
76714;SDS011;65644;44.990;20.288;2024-02-21T08:27:43;12.40;;;6.53;;
76714;SDS011;65644;44.990;20.288;2024-02-21T08:30:10;9.43;;;5.85;;
76714;SDS011;65644;44.990;20.288;2024-02-21T08:32:38;11.45;;;5.80;;
76714;SDS011;65644;44.990;20.288;2024-02-21T08:35:04;7.88;;;5.80;;
76714;SDS011;65644;44.990;20.288;2024-02-21T08:37:30;9.82;;;5.97;;
76714;SDS011;65644;44.990;20.288;2024-02-21T08:39:56;10.15;;;6.30;;
76714;SDS011;65644;44.990;20.288;2024-02-21T08:42:22;8.07;;;6.32;;
76714;SDS011;65644;44.990;20.288;2024-02-21T08:44:48;7.15;;;6.45;;
76714;SDS011;65644;44.990;20.288;2024-02-21T08:47:15;9.25;;;7.07;;
76714;SDS011;65644;44.990;20.288;2024-02-21T08:49:41;8.80;;;6.30;;
76714;SDS011;65644;44.990;20.288;2024-02-21T08:52:07;12.88;;;7.18;;
76714;SDS011;65644;44.990;20.288;2024-02-21T08:54:33;12.50;;;6.55;;
76714;SDS011;65644;44.990;20.288;2024-02-21T08:56:59;8.50;;;5.43;;
76714;SDS011;65644;44.990;20.288;2024-02-21T08:59:25;8.68;;;6.00;;
76714;SDS011;65644;44.990;20.288;2024-02-21T09:01:52;12.27;;;6.20;;
76714;SDS011;65644;44.990;20.288;2024-02-21T09:04:18;9.95;;;5.82;;
76714;SDS011;65644;44.990;20.288;2024-02-21T09:06:45;8.60;;;6.40;;
76714;SDS011;65644;44.990;20.288;2024-02-21T09:09:11;11.10;;;7.07;;
76714;SDS011;65644;44.990;20.288;2024-02-21T09:11:37;13.65;;;7.25;;
76714;SDS011;65644;44.990;20.288;2024-02-21T09:14:05;8.68;;;6.45;;
76714;SDS011;65644;44.990;20.288;2024-02-21T09:16:34;7.95;;;5.97;;
76714;SDS011;65644;44.990;20.288;2024-02-21T09:19:00;9.98;;;5.38;;
76714;SDS011;65644;44.990;20.288;2024-02-21T09:21:26;8.07;;;6.20;;
76714;SDS011;65644;44.990;20.288;2024-02-21T09:23:53;6.68;;;5.63;;
76714;SDS011;65644;44.990;20.288;2024-02-21T09:26:19;8.23;;;5.70;;
76714;SDS011;65644;44.990;20.288;2024-02-21T09:28:45;8.25;;;5.95;;
76714;SDS011;65644;44.990;20.288;2024-02-21T09:31:11;7.55;;;6.13;;
76714;SDS011;65644;44.990;20.288;2024-02-21T09:33:37;7.72;;;6.40;;
76714;SDS011;65644;44.990;20.288;2024-02-21T09:36:04;10.93;;;7.07;;
76714;SDS011;65644;44.990;20.288;2024-02-21T09:38:33;11.73;;;6.00;;
76714;SDS011;65644;44.990;20.288;2024-02-21T09:41:00;8.82;;;6.25;;
76714;SDS011;65644;44.990;20.288;2024-02-21T09:43:27;9.82;;;6.43;;
76714;SDS011;65644;44.990;20.288;2024-02-21T09:45:54;13.52;;;6.80;;
76714;SDS011;65644;44.990;20.288;2024-02-21T09:50:51;75.97;;;39.53;;
76714;SDS011;65644;44.990;20.288;2024-02-21T09:53:18;20.15;;;11.90;;
76714;SDS011;65644;44.990;20.288;2024-02-21T09:55:45;15.65;;;11.27;;
76714;SDS011;65644;44.990;20.288;2024-02-21T09:58:12;21.25;;;19.27;;
76714;SDS011;65644;44.990;20.288;2024-02-21T10:00:38;15.77;;;9.73;;
76714;SDS011;65644;44.990;20.288;2024-02-21T10:03:04;27.05;;;15.75;;
76714;SDS011;65644;44.990;20.288;2024-02-21T10:05:33;24.52;;;9.52;;
76714;SDS011;65644;44.990;20.288;2024-02-21T10:08:00;15.13;;;9.32;;
76714;SDS011;65644;44.990;20.288;2024-02-21T10:10:26;12.25;;;7.72;;
76714;SDS011;65644;44.990;20.288;2024-02-21T10:12:54;11.23;;;6.20;;
76714;SDS011;65644;44.990;20.288;2024-02-21T10:15:21;12.48;;;6.60;;
76714;SDS011;65644;44.990;20.288;2024-02-21T10:17:58;7.43;;;5.30;;
76714;SDS011;65644;44.990;20.288;2024-02-21T10:20:24;11.65;;;5.07;;
76714;SDS011;65644;44.990;20.288;2024-02-21T10:22:59;9.38;;;5.25;;
76714;SDS011;65644;44.990;20.288;2024-02-21T10:25:26;13.00;;;6.30;;
76714;SDS011;65644;44.990;20.288;2024-02-21T10:27:52;16.83;;;6.93;;
76714;SDS011;65644;44.990;20.288;2024-02-21T10:30:19;10.70;;;7.60;;
76714;SDS011;65644;44.990;20.288;2024-02-21T10:32:52;8.48;;;5.50;;
76714;SDS011;65644;44.990;20.288;2024-02-21T10:35:28;16.98;;;7.03;;
76714;SDS011;65644;44.990;20.288;2024-02-21T10:37:57;17.02;;;6.85;;
76714;SDS011;65644;44.990;20.288;2024-02-21T10:40:24;12.93;;;6.43;;
76714;SDS011;65644;44.990;20.288;2024-02-21T10:43:00;13.52;;;6.60;;
76714;SDS011;65644;44.990;20.288;2024-02-21T10:45:30;15.13;;;6.82;;
76714;SDS011;65644;44.990;20.288;2024-02-21T10:48:00;10.15;;;6.35;;
76714;SDS011;65644;44.990;20.288;2024-02-21T10:50:27;9.52;;;7.85;;
76714;SDS011;65644;44.990;20.288;2024-02-21T10:53:03;13.60;;;7.28;;
76714;SDS011;65644;44.990;20.288;2024-02-21T10:55:38;18.63;;;7.68;;
76714;SDS011;65644;44.990;20.288;2024-02-21T10:58:04;18.13;;;6.85;;
76714;SDS011;65644;44.990;20.288;2024-02-21T11:00:30;14.27;;;6.50;;
76714;SDS011;65644;44.990;20.288;2024-02-21T11:02:57;9.73;;;5.20;;
76714;SDS011;65644;44.990;20.288;2024-02-21T11:05:24;10.80;;;5.05;;
76714;SDS011;65644;44.990;20.288;2024-02-21T11:07:52;9.93;;;4.68;;
76714;SDS011;65644;44.990;20.288;2024-02-21T11:10:25;9.07;;;4.50;;
76714;SDS011;65644;44.990;20.288;2024-02-21T11:13:08;12.75;;;4.82;;
76714;SDS011;65644;44.990;20.288;2024-02-21T11:15:34;9.32;;;3.72;;
76714;SDS011;65644;44.990;20.288;2024-02-21T11:18:00;7.47;;;4.10;;
76714;SDS011;65644;44.990;20.288;2024-02-21T11:20:36;5.05;;;3.88;;
76714;SDS011;65644;44.990;20.288;2024-02-21T11:23:03;8.15;;;4.32;;
76714;SDS011;65644;44.990;20.288;2024-02-21T11:25:30;11.02;;;5.20;;
76714;SDS011;65644;44.990;20.288;2024-02-21T11:28:01;9.32;;;5.13;;
76714;SDS011;65644;44.990;20.288;2024-02-21T11:30:29;10.10;;;4.72;;
76714;SDS011;65644;44.990;20.288;2024-02-21T11:32:59;12.07;;;5.07;;
76714;SDS011;65644;44.990;20.288;2024-02-21T11:35:26;9.48;;;4.18;;
76714;SDS011;65644;44.990;20.288;2024-02-21T11:37:56;7.38;;;3.67;;
76714;SDS011;65644;44.990;20.288;2024-02-21T11:40:33;7.30;;;4.28;;
76714;SDS011;65644;44.990;20.288;2024-02-21T11:42:59;9.32;;;4.63;;
76714;SDS011;65644;44.990;20.288;2024-02-21T11:45:26;16.50;;;5.03;;
76714;SDS011;65644;44.990;20.288;2024-02-21T11:47:52;10.10;;;4.28;;
76714;SDS011;65644;44.990;20.288;2024-02-21T11:50:18;14.32;;;4.60;;
76714;SDS011;65644;44.990;20.288;2024-02-21T11:52:45;8.90;;;4.03;;
76714;SDS011;65644;44.990;20.288;2024-02-21T11:55:11;12.85;;;4.55;;
76714;SDS011;65644;44.990;20.288;2024-02-21T11:57:37;9.38;;;4.50;;
76714;SDS011;65644;44.990;20.288;2024-02-21T12:00:12;21.45;;;9.30;;
76714;SDS011;65644;44.990;20.288;2024-02-21T12:02:39;17.80;;;7.45;;
76714;SDS011;65644;44.990;20.288;2024-02-21T12:05:05;15.85;;;5.32;;
76714;SDS011;65644;44.990;20.288;2024-02-21T12:07:31;10.00;;;4.38;;
76714;SDS011;65644;44.990;20.288;2024-02-21T12:10:00;19.30;;;6.47;;
76714;SDS011;65644;44.990;20.288;2024-02-21T12:12:28;9.20;;;4.20;;
76714;SDS011;65644;44.990;20.288;2024-02-21T12:14:55;9.60;;;5.13;;
76714;SDS011;65644;44.990;20.288;2024-02-21T12:17:25;6.22;;;4.45;;
76714;SDS011;65644;44.990;20.288;2024-02-21T12:19:51;9.68;;;4.30;;
76714;SDS011;65644;44.990;20.288;2024-02-21T12:22:20;10.45;;;4.53;;
76714;SDS011;65644;44.990;20.288;2024-02-21T12:24:46;10.57;;;4.90;;
76714;SDS011;65644;44.990;20.288;2024-02-21T12:27:13;8.65;;;5.25;;
76714;SDS011;65644;44.990;20.288;2024-02-21T12:29:40;12.95;;;8.15;;
76714;SDS011;65644;44.990;20.288;2024-02-21T12:32:06;14.73;;;10.95;;
76714;SDS011;65644;44.990;20.288;2024-02-21T12:34:32;7.60;;;3.67;;
76714;SDS011;65644;44.990;20.288;2024-02-21T12:36:58;23.15;;;21.13;;
76714;SDS011;65644;44.990;20.288;2024-02-21T12:39:24;7.65;;;3.95;;
76714;SDS011;65644;44.990;20.288;2024-02-21T12:41:53;7.15;;;5.15;;
76714;SDS011;65644;44.990;20.288;2024-02-21T12:44:21;8.52;;;4.40;;
76714;SDS011;65644;44.990;20.288;2024-02-21T12:46:47;10.52;;;3.33;;
76714;SDS011;65644;44.990;20.288;2024-02-21T12:49:17;10.30;;;2.85;;
76714;SDS011;65644;44.990;20.288;2024-02-21T12:51:44;4.70;;;2.33;;
76714;SDS011;65644;44.990;20.288;2024-02-21T12:54:11;6.07;;;2.03;;
76714;SDS011;65644;44.990;20.288;2024-02-21T12:56:38;5.22;;;2.13;;
76714;SDS011;65644;44.990;20.288;2024-02-21T12:59:05;5.38;;;2.38;;
76714;SDS011;65644;44.990;20.288;2024-02-21T13:01:34;9.10;;;2.70;;
76714;SDS011;65644;44.990;20.288;2024-02-21T13:04:00;7.20;;;2.42;;
76714;SDS011;65644;44.990;20.288;2024-02-21T13:06:27;5.93;;;2.17;;
76714;SDS011;65644;44.990;20.288;2024-02-21T13:08:53;7.05;;;2.05;;
76714;SDS011;65644;44.990;20.288;2024-02-21T13:11:19;6.85;;;4.05;;
76714;SDS011;65644;44.990;20.288;2024-02-21T13:13:45;3.90;;;1.70;;
76714;SDS011;65644;44.990;20.288;2024-02-21T13:16:11;4.60;;;1.90;;
76714;SDS011;65644;44.990;20.288;2024-02-21T13:18:37;5.15;;;2.05;;
76714;SDS011;65644;44.990;20.288;2024-02-21T13:21:05;7.07;;;2.30;;
76714;SDS011;65644;44.990;20.288;2024-02-21T13:23:31;7.20;;;2.13;;
76714;SDS011;65644;44.990;20.288;2024-02-21T13:25:57;11.38;;;3.60;;
76714;SDS011;65644;44.990;20.288;2024-02-21T13:28:23;8.05;;;3.13;;
76714;SDS011;65644;44.990;20.288;2024-02-21T13:30:49;6.47;;;2.47;;
76714;SDS011;65644;44.990;20.288;2024-02-21T13:33:15;8.75;;;2.83;;
76714;SDS011;65644;44.990;20.288;2024-02-21T13:35:42;7.82;;;2.60;;
76714;SDS011;65644;44.990;20.288;2024-02-21T13:38:08;5.90;;;1.85;;
76714;SDS011;65644;44.990;20.288;2024-02-21T13:40:35;6.40;;;1.67;;
76714;SDS011;65644;44.990;20.288;2024-02-21T13:43:01;6.68;;;1.92;;
76714;SDS011;65644;44.990;20.288;2024-02-21T13:45:27;6.15;;;2.00;;
76714;SDS011;65644;44.990;20.288;2024-02-21T13:47:53;5.78;;;1.63;;
76714;SDS011;65644;44.990;20.288;2024-02-21T13:50:21;5.97;;;2.00;;
76714;SDS011;65644;44.990;20.288;2024-02-21T13:52:47;5.10;;;2.25;;
76714;SDS011;65644;44.990;20.288;2024-02-21T13:55:13;7.35;;;2.40;;
76714;SDS011;65644;44.990;20.288;2024-02-21T13:57:40;5.05;;;1.63;;
76714;SDS011;65644;44.990;20.288;2024-02-21T14:00:07;7.95;;;1.88;;
76714;SDS011;65644;44.990;20.288;2024-02-21T14:02:36;10.95;;;2.30;;
76714;SDS011;65644;44.990;20.288;2024-02-21T14:05:04;7.80;;;2.22;;
76714;SDS011;65644;44.990;20.288;2024-02-21T14:07:31;10.57;;;2.60;;
76714;SDS011;65644;44.990;20.288;2024-02-21T14:09:58;11.60;;;3.45;;
76714;SDS011;65644;44.990;20.288;2024-02-21T14:12:24;7.32;;;2.47;;
76714;SDS011;65644;44.990;20.288;2024-02-21T14:14:50;7.47;;;2.10;;
76714;SDS011;65644;44.990;20.288;2024-02-21T14:17:17;15.30;;;8.25;;
76714;SDS011;65644;44.990;20.288;2024-02-21T14:19:43;7.47;;;3.55;;
76714;SDS011;65644;44.990;20.288;2024-02-21T14:22:09;5.43;;;2.50;;
76714;SDS011;65644;44.990;20.288;2024-02-21T14:24:36;6.80;;;2.72;;
76714;SDS011;65644;44.990;20.288;2024-02-21T14:27:03;8.98;;;3.05;;
76714;SDS011;65644;44.990;20.288;2024-02-21T14:29:29;13.68;;;3.30;;